Time;durP1;ratioP1;P1;durP2;ratioP2;P2;SDS_P1;SDS_P2;PMS_P1;PMS_P2;Temp;Humidity;BMP_temperature;BMP_pressure;BME280_temperature;BME280_humidity;BME280_pressure;Samples;Min_cycle;Max_cycle;Signal;HPM_P1;HPM_P2
2022/02/24 00:01:55;;;;;;;6.70;4.40;;;;;;;19.61;38.22;101404.88;101804;1340;61557;-82
2022/02/24 00:04:34;;;;;;;;;;;;;;;;;;;;;
2022/02/24 00:07:39;;;;;;;6.80;4.40;;;;;;;19.62;38.37;101410.40;101981;1331;75946;-87
2022/02/24 00:10:20;;;;;;;8.60;4.80;;;;;;;19.61;38.30;101417.38;102446;1331;61366;-83
2022/02/24 00:12:58;;;;;;;7.00;4.70;;;;;;;19.62;38.23;101420.73;102485;1326;61276;-83
2022/02/24 00:15:53;;;;;;;6.90;4.60;;;;;;;19.63;38.40;101422.69;103865;1309;73046;-83
2022/02/24 00:18:26;;;;;;;7.50;4.60;;;;;;;19.62;38.29;101428.40;104538;1308;74586;-81
2022/02/24 00:21:00;;;;;;;6.20;4.20;;;;;;;19.62;38.38;101433.77;104531;1308;61353;-82
2022/02/24 00:26:55;;;;;;;6.60;4.20;;;;;;;19.62;38.39;101434.30;104155;1316;74036;-86
2022/02/24 00:29:23;;;;;;;7.50;4.40;;;;;;;19.62;38.31;101442.13;103875;1315;74966;-77
2022/02/24 00:32:01;;;;;;;6.10;4.10;;;;;;;19.63;38.27;101436.78;104133;1314;61432;-78
2022/02/24 00:34:50;;;;;;;7.10;4.40;;;;;;;19.64;38.30;101438.88;104206;1314;61469;-83
2022/02/24 00:37:35;;;;;;;7.00;4.60;;;;;;;19.63;38.37;101439.07;104089;1316;73679;-84
2022/02/24 00:40:21;;;;;;;8.50;4.40;;;;;;;19.63;38.36;101445.19;104193;1314;77509;-84
2022/02/24 00:42:47;;;;;;;8.10;4.60;;;;;;;19.63;38.41;101446.39;104163;1314;60544;-84
2022/02/24 00:45:45;;;;;;;7.20;4.00;;;;;;;19.63;38.39;101454.81;104116;1314;61200;-85
2022/02/24 00:48:15;;;;;;;7.00;4.70;;;;;;;19.63;38.41;101450.30;104148;1314;72650;-83
2022/02/24 00:51:00;;;;;;;;;;;;;;;;;;;;;
2022/02/24 00:53:41;;;;;;;6.80;4.40;;;;;;;19.63;38.25;101456.58;104146;1314;61430;-79
2022/02/24 00:56:27;;;;;;;6.20;4.10;;;;;;;19.63;38.36;101458.37;104158;1314;61402;-82
2022/02/24 00:59:05;;;;;;;7.40;4.10;;;;;;;19.63;38.21;101463.71;103872;1317;71977;-86
2022/02/24 01:01:51;;;;;;;7.80;4.40;;;;;;;19.63;38.29;101463.17;104188;1314;74829;-81
2022/02/24 01:04:27;;;;;;;6.10;4.00;;;;;;;19.64;38.24;101465.48;104155;1309;61155;-83
2022/02/24 01:07:39;;;;;;;7.30;4.40;;;;;;;19.64;38.38;101466.89;104538;1308;61278;-81
2022/02/24 01:10:14;;;;;;;6.50;3.70;;;;;;;19.63;38.33;101469.23;104598;1308;73536;-79
2022/02/24 01:13:03;;;;;;;;;;;;;;;19.64;38.36;101467.59;104388;1309;74763;-83
2022/02/24 01:15:41;;;;;;;;;;;;;;;;;;;;;
2022/02/24 01:18:27;;;;;;;;;;;;;;;;;;;;;
2022/02/24 01:20:58;;;;;;;6.90;4.00;;;;;;;19.63;38.34;101464.98;104566;1307;72851;-83
2022/02/24 01:23:49;;;;;;;6.70;4.10;;;;;;;19.63;38.20;101470.67;104508;1309;76172;-81
2022/02/24 01:26:28;;;;;;;;;;;;;;;;;;;;;
2022/02/24 01:29:19;;;;;;;5.50;3.80;;;;;;;19.64;38.38;101472.27;104553;1307;61228;-85
2022/02/24 01:31:52;;;;;;;6.10;4.30;;;;;;;19.64;38.33;101478.49;104455;1309;73922;-82
2022/02/24 01:34:49;;;;;;;7.20;4.20;;;;;;;19.64;38.28;101482.44;104401;1308;75042;-84
2022/02/24 01:37:46;;;;;;;6.10;3.70;;;;;;;19.63;38.43;101485.84;104513;1308;61182;-83
2022/02/24 01:40:32;;;;;;;;;;;;;;;19.63;38.30;101485.67;104461;1308;61189;-84
2022/02/24 01:43:27;;;;;;;6.50;3.50;;;;;;;19.62;38.39;101486.66;104608;1308;72803;-83
2022/02/24 01:46:06;;;;;;;5.80;4.00;;;;;;;19.63;38.36;101490.86;104490;1308;74965;-81
2022/02/24 01:49:01;;;;;;;5.60;3.70;;;;;;;19.63;38.38;101494.42;104571;1308;61266;-80
2022/02/24 01:51:50;;;;;;;6.50;3.80;;;;;;;19.63;38.36;101493.89;104516;1308;61289;-87
2022/02/24 01:54:48;;;;;;;6.10;3.90;;;;;;;19.64;38.37;101495.81;104202;1314;73992;-82
2022/02/24 01:57:19;;;;;;;6.00;4.00;;;;;;;19.64;38.42;101497.77;104279;1314;74671;-81
2022/02/24 02:00:25;;;;;;;6.60;3.50;;;;;;;19.64;38.40;101498.11;104203;1314;61189;-83
2022/02/24 02:02:51;;;;;;;5.80;3.60;;;;;;;19.65;38.28;101496.84;104316;1314;60718;-82
2022/02/24 02:05:49;;;;;;;6.50;3.90;;;;;;;19.65;38.31;101495.92;103999;1314;73104;-82
2022/02/24 02:08:45;;;;;;;5.50;3.50;;;;;;;19.65;38.14;101501.11;104201;1314;73823;-82
2022/02/24 02:11:31;;;;;;;5.60;3.50;;;;;;;19.66;38.15;101501.08;104240;1314;61081;-81
2022/02/24 02:13:57;;;;;;;4.90;3.50;;;;;;;19.66;38.35;101506.79;104295;1314;61495;-83
2022/02/24 02:16:54;;;;;;;7.10;3.80;;;;;;;19.66;38.32;101509.81;104154;1314;72921;-88
2022/02/24 02:19:37;;;;;;;;;;;;;;;;;;;;;
2022/02/24 02:22:26;;;;;;;5.70;3.60;;;;;;;19.66;38.28;101510.36;102940;1326;61075;-82
2022/02/24 02:25:21;;;;;;;6.70;3.70;;;;;;;19.66;38.27;101512.66;102832;1323;62466;-80
2022/02/24 02:28:16;;;;;;;5.70;3.60;;;;;;;19.66;38.31;101518.91;102714;1326;72631;-83
2022/02/24 02:31:03;;;;;;;5.10;3.60;;;;;;;19.66;38.26;101523.20;102798;1324;74711;-85
2022/02/24 02:33:42;;;;;;;;;;;;;;;;;;;;;
2022/02/24 02:36:39;;;;;;;5.50;3.50;;;;;;;19.67;38.23;101532.62;103020;1324;61094;-83
2022/02/24 02:39:33;;;;;;;;;;;;;;;;;;;;;
2022/02/24 02:42:20;;;;;;;;;;;;;;;;;;;;;
2022/02/24 02:45:03;;;;;;;;;;;;;;;;;;;;;
2022/02/24 02:48:10;;;;;;;;;;;;;;;;;;;;;
2022/02/24 02:51:17;;;;;;;4.80;3.20;;;;;;;19.68;38.21;101548.30;102088;1335;72894;-81
2022/02/24 02:54:07;;;;;;;;;;;;;;;;;;;;;
2022/02/24 02:56:53;;;;;;;5.40;3.10;;;;;;;19.68;38.24;101561.16;102615;1326;61444;-79
2022/02/24 02:59:58;;;;;;;4.60;3.00;;;;;;;19.67;38.25;101565.27;102745;1326;61477;-79
2022/02/24 03:02:53;;;;;;;5.30;3.40;;;;;;;19.68;38.28;101568.29;102739;1326;72911;-86
2022/02/24 03:06:03;;;;;;;5.60;3.10;;;;;;;19.68;38.19;101571.34;103141;1320;74662;-83
2022/02/24 03:08:43;;;;;;;;;;;;;;;;;;;;;
2022/02/24 03:11:34;;;;;;;5.70;3.30;;;;;;;19.68;38.17;101578.80;103253;1320;61591;-81
2022/02/24 03:14:15;;;;;;;6.50;3.40;;;;;;;19.68;38.21;101577.23;102807;1325;72821;-82
2022/02/24 03:17:03;;;;;;;;;;;;;;;19.68;38.18;101584.88;102776;1326;74711;-79
2022/02/24 03:19:56;;;;;;;4.00;2.60;;;;;;;19.66;38.20;101585.35;102918;1325;61202;-82
2022/02/24 03:22:52;;;;;;;4.90;3.20;;;;;;;19.66;38.22;101589.77;102919;1326;61297;-83
2022/02/24 03:25:36;;;;;;;5.00;2.90;;;;;;;19.67;38.18;101587.80;102522;1329;73998;-82
2022/02/24 03:28:29;;;;;;;4.10;3.00;;;;;;;19.67;38.20;101593.86;102694;1326;74809;-82
2022/02/24 03:31:16;;;;;;;4.50;2.90;;;;;;;19.67;38.16;101592.80;102703;1326;61399;-82
2022/02/24 03:34:00;;;;;;;4.90;3.10;;;;;;;19.67;38.22;101589.02;102738;1326;61332;-84
2022/02/24 03:36:50;;;;;;;5.10;3.20;;;;;;;19.68;38.19;101589.72;102728;1326;74141;-82
2022/02/24 03:39:36;;;;;;;4.90;3.20;;;;;;;19.67;38.16;101589.37;102716;1326;76075;-78
2022/02/24 03:42:25;;;;;;;5.60;3.00;;;;;;;19.67;38.18;101593.48;102496;1331;61789;-83
2022/02/24 03:45:16;;;;;;;4.60;2.90;;;;;;;19.67;38.18;101598.88;102411;1332;61191;-85
2022/02/24 03:48:00;;;;;;;5.00;3.40;;;;;;;19.68;38.16;101602.77;102449;1332;72964;-85
2022/02/24 03:51:13;;;;;;;4.70;3.00;;;;;;;19.67;38.24;101606.33;102117;1335;76296;-85
2022/02/24 03:54:03;;;;;;;4.70;2.90;;;;;;;19.68;38.15;101613.98;102287;1335;61710;-82
2022/02/24 03:56:49;;;;;;;5.40;3.20;;;;;;;19.68;38.11;101614.51;102312;1333;61394;-83
2022/02/24 03:59:27;;;;;;;4.10;2.50;;;;;;;19.69;38.17;101616.82;102266;1335;73804;-82
2022/02/24 04:01:53;;;;;;;4.50;2.70;;;;;;;19.69;38.05;101616.27;102374;1329;74938;-85
2022/02/24 04:04:41;;;;;;;4.50;2.70;;;;;;;19.69;38.16;101619.67;102690;1329;59397;-79
2022/02/24 04:07:27;;;;;;;;;;;;;;;;;;;;;
2022/02/24 04:10:08;;;;;;;4.60;3.00;;;;;;;19.68;38.14;101627.20;102663;1329;74097;-85
2022/02/24 04:12:52;;;;;;;4.40;2.80;;;;;;;19.69;38.07;101634.66;102541;1329;74843;-82
2022/02/24 04:15:47;;;;;;;;;;;;;;;;;;;;;
2022/02/24 04:18:16;;;;;;;4.40;2.60;;;;;;;19.69;38.07;101640.58;102689;1328;61502;-85
2022/02/24 04:20:53;;;;;;;5.10;2.90;;;;;;;19.69;38.13;101644.66;102778;1323;72967;-85
2022/02/24 04:24:06;;;;;;;5.30;2.90;;;;;;;19.69;38.11;101649.10;102795;1323;75815;-82
2022/02/24 04:27:03;;;;;;;4.70;2.90;;;;;;;19.69;38.03;101652.70;102405;1335;61455;-83
2022/02/24 04:29:39;;;;;;;;;;;;;;;;;;;;;
2022/02/24 04:32:35;;;;;;;4.80;2.90;;;;;;;19.70;38.09;101660.33;102418;1332;74126;-82
2022/02/24 04:35:25;;;;;;;4.40;2.70;;;;;;;19.69;38.08;101659.62;102448;1331;74739;-83
2022/02/24 04:38:12;;;;;;;4.60;2.70;;;;;;;19.69;38.10;101663.73;101925;1335;61365;-82
2022/02/24 04:41:01;;;;;;;4.30;2.60;;;;;;;19.69;38.02;101666.23;102101;1334;61442;-83
2022/02/24 04:43:40;;;;;;;4.80;2.80;;;;;;;19.69;38.03;101660.55;102158;1335;72801;-82
2022/02/24 04:46:37;;;;;;;4.60;2.80;;;;;;;19.70;38.06;101658.36;102207;1335;75058;-83
2022/02/24 04:49:13;;;;;;;5.90;2.90;;;;;;;19.69;37.97;101663.38;102111;1335;61409;-86
2022/02/24 04:52:10;;;;;;;4.90;2.90;;;;;;;19.69;37.95;101665.71;102116;1335;61672;-83
2022/02/24 04:54:43;;;;;;;4.70;2.60;;;;;;;19.69;37.99;101664.48;102121;1335;74099;-83
2022/02/24 04:57:37;;;;;;;4.90;2.90;;;;;;;19.69;37.91;101673.38;102329;1332;74742;-83
2022/02/24 05:00:09;;;;;;;4.60;2.90;;;;;;;19.70;37.89;101676.59;102508;1332;61216;-83
2022/02/24 05:03:32;;;;;;;;;;;;;;;;;;;;;
2022/02/24 05:06:19;;;;;;;4.00;2.70;;;;;;;19.68;37.74;101691.67;102621;1329;73960;-85
2022/02/24 05:08:52;;;;;;;4.50;2.90;;;;;;;19.67;37.89;101696.70;102775;1326;75714;-81
2022/02/24 05:11:35;;;;;;;4.60;2.60;;;;;;;19.64;37.92;101699.91;103248;1320;61224;-83
2022/02/24 05:14:24;;;;;;;5.10;2.80;;;;;;;19.63;38.06;101703.89;103637;1320;61375;-83
2022/02/24 05:17:32;;;;;;;4.70;3.10;;;;;;;19.60;38.06;101711.16;104162;1314;73973;-83
2022/02/24 05:20:26;;;;;;;5.30;2.80;;;;;;;19.57;37.92;101713.11;103597;1320;74872;-82
2022/02/24 05:23:03;;;;;;;4.80;2.90;;;;;;;19.55;37.74;101718.58;103237;1320;61742;-83
2022/02/24 05:25:46;;;;;;;;;;;;;;;;;;;;;
2022/02/24 05:28:17;;;;;;;5.00;3.10;;;;;;;19.51;37.60;101726.80;103275;1318;73935;-85
2022/02/24 05:31:06;;;;;;;5.50;3.00;;;;;;;19.49;37.53;101730.85;103361;1321;74944;-82
2022/02/24 05:33:32;;;;;;;5.70;2.90;;;;;;;19.47;37.34;101735.26;103634;1318;61205;-85
2022/02/24 05:36:19;;;;;;;5.60;3.20;;;;;;;19.44;36.99;101741.44;103595;1318;61304;-80
2022/02/24 05:38:48;;;;;;;10.10;3.20;;;;;;;19.42;37.05;101744.73;103535;1318;73974;-79
2022/02/24 05:41:17;;;;;;;5.50;3.20;;;;;;;19.41;36.72;101745.51;103993;1312;74030;-82
2022/02/24 05:43:56;;;;;;;5.40;3.40;;;;;;;19.38;36.51;101748.67;104138;1312;61474;-81
2022/02/24 05:47:00;;;;;;;5.10;3.30;;;;;;;19.37;36.39;101749.65;103997;1312;61387;-82
2022/02/24 05:49:26;;;;;;;8.40;3.50;;;;;;;19.35;36.15;101751.34;103987;1312;73906;-79
2022/02/24 05:52:00;;;;;;;9.30;3.60;;;;;;;19.33;35.97;101756.79;104063;1312;76403;-80
2022/02/24 05:54:26;;;;;;;7.10;3.60;;;;;;;19.30;35.88;101755.70;103872;1312;61851;-80
2022/02/24 05:56:53;;;;;;;7.20;3.50;;;;;;;19.25;35.76;101755.92;103839;1306;61296;-79
2022/02/24 05:59:22;;;;;;;7.50;3.30;;;;;;;19.23;35.67;101757.46;103880;1308;72860;-79
2022/02/24 06:01:48;;;;;;;9.00;3.70;;;;;;;19.22;35.62;101758.23;104273;1306;77541;-79
2022/02/24 06:04:14;;;;;;;10.60;3.90;;;;;;;19.20;35.57;101759.75;104211;1306;59680;-80
2022/02/24 06:06:39;;;;;;;7.00;3.80;;;;;;;19.18;35.61;101760.56;103997;1306;61311;-79
2022/02/24 06:09:05;;;;;;;11.20;4.00;;;;;;;19.14;35.51;101765.02;104326;1308;59951;-79
2022/02/24 06:11:31;;;;;;;9.20;3.80;;;;;;;19.12;35.34;101767.25;104782;1307;59676;-79
2022/02/24 06:13:56;;;;;;;7.40;3.70;;;;;;;19.12;35.33;101770.85;104853;1308;59238;-79
2022/02/24 06:16:22;;;;;;;5.90;3.50;;;;;;;19.13;35.31;101773.13;104746;1309;61595;-80
2022/02/24 06:18:47;;;;;;;8.60;3.90;;;;;;;19.15;35.20;101774.27;103836;1308;61413;-80
2022/02/24 06:21:16;;;;;;;13.80;3.70;;;;;;;19.17;35.10;101777.21;103972;1308;61251;-80
2022/02/24 06:23:42;;;;;;;16.90;4.40;;;;;;;19.18;34.90;101776.59;103835;1311;74957;-80
2022/02/24 06:26:08;;;;;;;16.80;4.50;;;;;;;19.20;34.95;101776.35;104634;1308;61315;-83
2022/02/24 06:28:36;;;;;;;12.20;4.10;;;;;;;19.22;35.01;101778.20;104019;1308;61420;-80
2022/02/24 06:31:04;;;;;;;11.80;3.40;;;;;;;19.24;34.84;101782.39;104206;1309;73284;-79
2022/02/24 06:33:30;;;;;;;10.90;3.70;;;;;;;19.26;34.86;101786.91;103798;1309;61476;-80
2022/02/24 06:35:56;;;;;;;6.90;3.60;;;;;;;19.26;34.81;101787.45;103721;1309;61270;-80
2022/02/24 06:38:22;;;;;;;9.00;4.20;;;;;;;19.28;34.73;101789.70;103596;1311;61285;-80
2022/02/24 06:40:47;;;;;;;10.30;3.90;;;;;;;19.29;34.75;101792.13;103749;1308;61397;-82
2022/02/24 06:43:19;;;;;;;8.60;4.40;;;;;;;19.30;34.62;101797.79;103989;1308;61384;-80
2022/02/24 06:45:45;;;;;;;20.20;3.80;;;;;;;19.31;34.61;101802.23;103894;1309;223805;-80
2022/02/24 06:48:10;;;;;;;9.00;4.00;;;;;;;19.31;34.48;101805.98;104065;1309;61301;-81
2022/02/24 06:50:36;;;;;;;12.10;3.70;;;;;;;19.33;34.61;101806.08;103878;1309;61347;-80
2022/02/24 06:53:02;;;;;;;8.60;4.10;;;;;;;19.34;34.44;101810.81;103992;1308;59897;-80
2022/02/24 06:55:28;;;;;;;8.90;3.90;;;;;;;19.34;34.40;101807.43;104024;1308;61162;-79
2022/02/24 06:57:54;;;;;;;12.20;4.00;;;;;;;19.32;34.41;101805.94;103853;1309;61201;-79
2022/02/24 07:00:22;;;;;;;14.30;4.30;;;;;;;19.31;34.64;101808.66;104171;1309;61319;-80
2022/02/24 07:02:48;;;;;;;12.10;3.90;;;;;;;19.30;34.71;101809.77;104331;1309;73656;-80
2022/02/24 07:05:14;;;;;;;12.50;4.10;;;;;;;19.28;35.01;101814.16;103855;1309;60354;-80
2022/02/24 07:07:39;;;;;;;14.90;4.20;;;;;;;19.29;35.21;101814.30;103959;1309;61674;-80
2022/02/24 07:10:08;;;;;;;13.30;4.20;;;;;;;19.30;35.33;101808.50;104068;1308;61464;-80
2022/02/24 07:12:35;;;;;;;15.00;4.00;;;;;;;19.33;35.43;101812.65;103924;1309;73159;-79
2022/02/24 07:15:01;;;;;;;8.20;3.80;;;;;;;19.35;35.64;101808.47;104162;1308;75168;-81
2022/02/24 07:17:26;;;;;;;15.90;3.80;;;;;;;19.38;35.70;101809.59;103858;1308;61308;-80
2022/02/24 07:19:54;;;;;;;12.00;3.80;;;;;;;19.39;35.83;101813.05;103917;1307;61318;-80
2022/02/24 07:22:20;;;;;;;12.90;3.50;;;;;;;19.42;35.89;101818.83;103965;1308;61902;-80
2022/02/24 07:24:45;;;;;;;13.70;4.00;;;;;;;19.43;35.85;101817.20;103918;1308;61335;-80
2022/02/24 07:27:12;;;;;;;10.60;3.60;;;;;;;19.44;35.90;101822.11;103976;1309;61283;-81
2022/02/24 07:29:37;;;;;;;12.10;3.90;;;;;;;19.46;36.02;101825.27;104037;1309;61310;-80
2022/02/24 07:32:03;;;;;;;12.60;3.90;;;;;;;19.46;36.15;101821.15;103896;1310;60925;-80
2022/02/24 07:34:32;;;;;;;10.50;3.50;;;;;;;19.47;36.07;101825.39;103835;1308;61403;-81
2022/02/24 07:36:58;;;;;;;11.40;3.80;;;;;;;19.47;35.86;101824.51;103890;1308;61970;-80
2022/02/24 07:39:26;;;;;;;10.00;4.10;;;;;;;19.48;35.96;101832.48;103925;1309;61323;-81
2022/02/24 07:41:59;;;;;;;9.70;3.70;;;;;;;19.48;35.96;101832.83;103848;1308;72260;-80
2022/02/24 07:44:25;;;;;;;10.40;4.30;;;;;;;19.47;35.79;101831.64;103775;1309;75953;-79
2022/02/24 07:46:52;;;;;;;11.00;3.90;;;;;;;19.46;35.73;101834.35;103812;1308;61332;-79
2022/02/24 07:49:18;;;;;;;10.40;3.90;;;;;;;19.46;35.47;101832.75;103920;1308;61150;-81
2022/02/24 07:51:48;;;;;;;13.40;3.70;;;;;;;19.46;35.65;101841.13;103910;1308;59527;-79
2022/02/24 07:54:20;;;;;;;14.10;3.80;;;;;;;19.45;35.33;101841.55;103845;1310;75269;-79
2022/02/24 07:56:47;;;;;;;9.30;3.80;;;;;;;19.41;35.25;101842.63;103920;1308;61156;-80
2022/02/24 07:59:13;;;;;;;11.20;3.80;;;;;;;19.34;35.32;101847.58;104688;1309;61266;-79
2022/02/24 08:01:39;;;;;;;10.00;3.70;;;;;;;19.29;35.30;101848.02;104017;1309;61997;-80
2022/02/24 08:04:06;;;;;;;9.00;3.10;;;;;;;19.22;35.21;101844.58;104851;1309;59107;-80
2022/02/24 08:06:31;;;;;;;17.50;3.60;;;;;;;19.18;35.12;101843.91;104945;1308;59423;-80
2022/02/24 08:08:57;;;;;;;10.40;3.50;;;;;;;19.15;35.06;101839.21;105120;1308;59842;-80
2022/02/24 08:11:22;;;;;;;17.10;3.80;;;;;;;19.12;34.95;101843.98;104893;1308;60605;-79
2022/02/24 08:13:50;;;;;;;9.50;3.30;;;;;;;19.09;34.92;101840.20;103684;1309;61313;-79
2022/02/24 08:16:15;;;;;;;12.00;3.50;;;;;;;19.08;34.93;101840.96;103617;1308;61367;-81
2022/02/24 08:18:41;;;;;;;9.50;3.30;;;;;;;19.08;34.74;101840.95;103789;1308;60078;-80
2022/02/24 08:21:10;;;;;;;8.10;3.30;;;;;;;19.10;34.65;101836.40;103916;1311;61315;-83
2022/02/24 08:23:36;;;;;;;11.30;3.60;;;;;;;19.12;34.50;101833.09;104047;1311;72702;-81
2022/02/24 08:26:02;;;;;;;8.10;3.20;;;;;;;19.14;34.42;101832.45;104178;1309;61218;-80
2022/02/24 08:28:28;;;;;;;11.40;3.20;;;;;;;19.16;34.35;101830.22;103906;1309;61726;-80
2022/02/24 08:30:53;;;;;;;8.90;2.90;;;;;;;19.18;34.31;101830.30;103860;1310;61322;-80
2022/02/24 08:33:28;;;;;;;25.10;4.60;;;;;;;19.20;34.13;101825.77;104000;1309;61263;-81
2022/02/24 08:35:54;;;;;;;23.00;4.40;;;;;;;19.22;34.03;101828.02;103980;1309;76074;-80
2022/02/24 08:38:27;;;;;;;35.20;5.20;;;;;;;19.23;33.91;101829.35;104044;1309;61190;-80
2022/02/24 08:40:53;;;;;;;25.40;4.40;;;;;;;19.26;33.90;101830.67;103993;1309;61238;-80
2022/02/24 08:43:22;;;;;;;32.20;4.80;;;;;;;19.27;33.75;101831.16;103912;1309;62588;-81
2022/02/24 08:45:48;;;;;;;31.60;5.40;;;;;;;19.27;33.63;101837.93;104180;1308;75588;-80
2022/02/24 08:48:17;;;;;;;26.20;4.10;;;;;;;19.24;33.40;101835.91;104169;1308;61170;-82
2022/02/24 08:50:43;;;;;;;19.60;4.40;;;;;;;19.21;33.39;101839.61;104261;1309;60619;-81
2022/02/24 08:53:09;;;;;;;10.40;3.90;;;;;;;19.18;33.16;101838.87;103991;1309;60130;-80
2022/02/24 08:55:38;;;;;;;13.50;3.20;;;;;;;19.12;32.81;101837.40;103547;1309;61393;-82
2022/02/24 08:58:20;;;;;;;19.20;3.80;;;;;;;18.99;32.40;101837.98;103832;1309;60487;-79
2022/02/24 09:00:47;;;;;;;9.80;3.10;;;;;;;18.89;32.61;101834.13;103827;1309;60560;-80
2022/02/24 09:03:19;;;;;;;19.20;3.20;;;;;;;18.90;32.69;101834.12;104157;1309;62627;-79
2022/02/24 09:05:45;;;;;;;12.20;3.10;;;;;;;18.92;32.92;101833.64;104109;1307;77517;-81
2022/02/24 09:08:11;;;;;;;12.80;3.30;;;;;;;18.94;33.00;101831.42;104509;1309;61446;-80
2022/02/24 09:10:37;;;;;;;13.70;3.50;;;;;;;18.98;33.13;101834.12;103885;1309;61285;-81
2022/02/24 09:13:08;;;;;;;14.70;3.40;;;;;;;19.02;33.18;101827.14;104069;1309;61198;-80
2022/02/24 09:15:35;;;;;;;12.60;3.30;;;;;;;19.07;33.08;101825.10;104222;1309;75845;-81
2022/02/24 09:18:06;;;;;;;10.40;3.90;;;;;;;19.09;33.08;101824.30;104220;1309;61336;-80
2022/02/24 09:20:34;;;;;;;12.10;3.80;;;;;;;19.11;33.03;101822.45;104070;1309;61154;-79
2022/02/24 09:23:00;;;;;;;11.10;3.60;;;;;;;19.10;32.79;101819.97;104172;1308;73079;-81
2022/02/24 09:25:26;;;;;;;6.90;3.00;;;;;;;19.09;32.58;101820.02;104191;1308;60927;-79
2022/02/24 09:27:52;;;;;;;7.40;3.10;;;;;;;19.08;32.37;101821.30;104476;1308;61262;-78
2022/02/24 09:30:18;;;;;;;8.80;2.80;;;;;;;19.08;32.20;101824.33;104006;1309;61316;-79
2022/02/24 09:32:43;;;;;;;6.00;3.00;;;;;;;19.09;32.07;101820.01;103918;1308;61367;-80
2022/02/24 09:35:18;;;;;;;8.10;3.00;;;;;;;19.12;31.94;101819.55;104061;1308;61271;-81
2022/02/24 09:37:44;;;;;;;10.20;2.60;;;;;;;19.14;31.65;101812.85;104225;1309;61160;-81
2022/02/24 09:40:19;;;;;;;7.60;2.60;;;;;;;19.15;31.76;101805.30;104241;1308;59804;-80
2022/02/24 09:42:45;;;;;;;9.00;3.00;;;;;;;19.16;31.60;101806.51;104145;1308;72965;-80
2022/02/24 09:45:10;;;;;;;7.80;3.00;;;;;;;19.16;31.67;101803.10;104177;1309;61460;-80
2022/02/24 09:47:40;;;;;;;10.00;3.10;;;;;;;19.15;31.52;101801.19;104371;1308;59697;-79
2022/02/24 09:50:06;;;;;;;5.90;3.10;;;;;;;19.14;31.48;101797.33;104110;1306;61738;-79
2022/02/24 09:52:32;;;;;;;10.60;3.10;;;;;;;19.11;31.10;101789.59;103922;1309;73192;-80
2022/02/24 09:54:57;;;;;;;7.10;3.00;;;;;;;19.02;31.04;101780.23;103838;1309;61262;-79
2022/02/24 09:57:23;;;;;;;11.80;3.50;;;;;;;18.96;31.22;101779.61;103944;1309;59995;-80
2022/02/24 09:59:53;;;;;;;12.10;3.30;;;;;;;18.89;31.36;101774.36;104036;1309;61390;-80
2022/02/24 10:02:20;;;;;;;7.50;2.90;;;;;;;18.88;31.51;101773.52;103928;1309;73800;-79
2022/02/24 10:05:11;;;;;;;8.20;3.10;;;;;;;18.87;31.50;101765.20;103899;1308;74692;-80
2022/02/24 10:07:40;;;;;;;15.40;3.20;;;;;;;18.78;31.27;101765.58;103908;1308;61227;-80
2022/02/24 10:10:31;;;;;;;13.10;3.40;;;;;;;18.76;31.36;101758.70;103841;1309;61893;-80
2022/02/24 10:13:07;;;;;;;8.50;3.30;;;;;;;18.78;31.46;101762.58;103744;1309;72675;-80
2022/02/24 10:15:33;;;;;;;5.80;3.10;;;;;;;18.79;31.34;101753.45;103679;1309;76312;-80
2022/02/24 10:18:10;;;;;;;6.10;2.90;;;;;;;18.80;31.21;101747.30;103693;1309;61453;-79
2022/02/24 10:20:41;;;;;;;5.50;2.90;;;;;;;18.83;31.22;101742.34;104199;1308;61182;-79
2022/02/24 10:23:09;;;;;;;6.00;3.00;;;;;;;18.85;31.12;101742.43;104992;1308;72826;-79
2022/02/24 10:25:44;;;;;;;4.70;2.60;;;;;;;18.88;31.13;101738.02;104832;1308;74808;-79
2022/02/24 10:28:33;;;;;;;6.60;2.70;;;;;;;18.91;31.02;101736.29;104282;1308;61645;-79
2022/02/24 10:31:20;;;;;;;5.90;3.10;;;;;;;18.96;31.14;101735.55;104037;1309;61328;-79
2022/02/24 10:34:07;;;;;;;6.70;2.60;;;;;;;18.99;31.12;101728.81;103850;1309;74005;-80
2022/02/24 10:36:37;;;;;;;6.00;2.50;;;;;;;19.03;30.98;101721.98;103733;1309;74698;-79
2022/02/24 10:39:08;;;;;;;5.00;2.50;;;;;;;19.08;30.88;101716.77;103737;1309;61359;-79
2022/02/24 10:41:39;;;;;;;5.40;2.60;;;;;;;19.11;30.97;101714.11;103803;1309;61461;-79
2022/02/24 10:44:25;;;;;;;5.40;2.70;;;;;;;19.14;30.84;101710.05;103801;1308;71818;-80
2022/02/24 10:47:03;;;;;;;5.80;2.60;;;;;;;19.18;30.88;101708.98;104960;1308;75871;-79
2022/02/24 10:49:29;;;;;;;10.60;2.60;;;;;;;19.18;30.86;101708.06;105122;1308;60460;-79
2022/02/24 10:52:17;;;;;;;8.20;2.60;;;;;;;19.18;30.65;101703.41;105003;1308;59452;-80
2022/02/24 10:55:07;;;;;;;11.30;2.80;;;;;;;18.98;30.12;101705.62;105117;1309;72774;-80
2022/02/24 10:57:33;;;;;;;10.80;3.20;;;;;;;18.81;30.58;101694.64;104741;1307;76127;-80
2022/02/24 10:59:59;;;;;;;13.50;3.00;;;;;;;18.81;30.86;101694.83;104716;1308;59236;-80
2022/02/24 11:02:26;;;;;;;7.90;2.60;;;;;;;18.76;30.95;101690.79;104319;1309;63284;-79
2022/02/24 11:04:52;;;;;;;5.10;2.50;;;;;;;18.72;30.78;101685.96;103825;1309;61351;-79
2022/02/24 11:07:23;;;;;;;6.10;2.80;;;;;;;18.66;30.48;101683.39;104813;1309;74865;-79
2022/02/24 11:09:51;;;;;;;8.90;3.00;;;;;;;18.61;30.27;101681.31;103873;1308;61300;-79
2022/02/24 11:12:19;;;;;;;7.20;2.70;;;;;;;18.53;30.29;101674.20;103733;1309;61217;-80
2022/02/24 11:14:47;;;;;;;6.00;2.80;;;;;;;18.49;30.10;101673.52;103851;1309;72944;-79
2022/02/24 11:17:33;;;;;;;6.20;2.50;;;;;;;18.47;30.15;101673.27;103848;1309;73588;-79
2022/02/24 11:19:59;;;;;;;6.20;2.90;;;;;;;18.50;30.22;101668.27;103738;1311;61335;-80
2022/02/24 11:22:25;;;;;;;7.00;2.80;;;;;;;18.57;30.07;101662.81;103951;1309;61320;-80
2022/02/24 11:24:51;;;;;;;13.20;2.80;;;;;;;18.63;30.33;101663.96;104167;1308;61418;-80
2022/02/24 11:27:42;;;;;;;7.70;2.60;;;;;;;18.66;30.63;101661.84;104006;1308;59678;-82
2022/02/24 11:30:46;;;;;;;8.00;2.70;;;;;;;18.68;30.61;101666.36;104215;1309;61334;-82
2022/02/24 11:33:15;;;;;;;9.20;2.50;;;;;;;18.72;31.05;101662.63;104423;1310;61759;-79
2022/02/24 11:35:40;;;;;;;11.00;2.60;;;;;;;18.77;31.39;101665.58;103799;1311;73036;-80
2022/02/24 11:38:09;;;;;;;9.70;2.60;;;;;;;18.82;31.40;101663.05;103893;1309;61408;-80
2022/02/24 11:40:37;;;;;;;9.00;2.60;;;;;;;18.86;31.50;101665.69;104811;1309;61658;-79
2022/02/24 11:43:21;;;;;;;7.30;2.80;;;;;;;18.90;31.53;101663.75;104504;1311;60369;-79
2022/02/24 11:45:54;;;;;;;6.80;2.40;;;;;;;18.92;31.49;101659.71;104895;1308;73249;-79
2022/02/24 11:48:22;;;;;;;6.70;3.00;;;;;;;18.92;31.26;101660.42;104941;1309;74968;-79
2022/02/24 11:50:55;;;;;;;10.40;2.90;;;;;;;18.94;30.96;101658.22;104820;1311;61693;-80
2022/02/24 11:53:27;;;;;;;13.40;2.60;;;;;;;18.90;30.53;101653.41;104784;1309;60428;-80
2022/02/24 11:55:55;;;;;;;7.10;2.50;;;;;;;18.74;30.13;101657.88;104761;1309;73273;-80
2022/02/24 11:58:36;;;;;;;5.60;2.50;;;;;;;18.68;29.98;101650.16;104638;1309;76141;-79
2022/02/24 12:01:26;;;;;;;9.70;2.80;;;;;;;18.65;30.15;101650.11;104789;1308;60088;-80
2022/02/24 12:04:00;;;;;;;8.80;3.00;;;;;;;18.67;30.12;101649.48;104769;1311;60671;-80
2022/02/24 12:06:41;;;;;;;6.70;2.50;;;;;;;18.70;30.06;101647.74;104806;1310;72882;-80
2022/02/24 12:09:27;;;;;;;4.90;2.60;;;;;;;18.72;29.92;101646.56;104874;1308;75762;-80
2022/02/24 12:12:00;;;;;;;8.40;2.50;;;;;;;18.59;29.37;101647.54;104874;1308;60535;-79
2022/02/24 12:14:34;;;;;;;5.90;2.50;;;;;;;18.46;29.12;101644.24;104971;1309;60394;-79
2022/02/24 12:17:03;;;;;;;6.70;2.70;;;;;;;18.43;29.01;101645.26;104780;1309;73013;-79
2022/02/24 12:19:38;;;;;;;4.60;2.70;;;;;;;18.44;28.92;101644.16;104846;1309;75593;-79
2022/02/24 12:22:29;;;;;;;4.90;2.40;;;;;;;18.15;28.49;101651.35;104084;1309;63329;-80
2022/02/24 12:25:10;;;;;;;9.70;2.70;;;;;;;18.06;28.68;101643.91;103936;1309;61355;-79
2022/02/24 12:27:56;;;;;;;10.70;2.60;;;;;;;18.12;28.68;101637.23;103764;1308;72854;-79
2022/02/24 12:30:30;;;;;;;5.10;2.50;;;;;;;18.20;28.78;101628.30;105105;1308;75756;-79